sensor_id;sensor_type;location;lat;lon;timestamp;pressure;altitude;pressure_sealevel;temperature;humidity
80654;BME280;70020;45.524;10.240;2023-09-08T00:00:14;100664.09;;;27.81;41.17
80654;BME280;70020;45.524;10.240;2023-09-08T00:02:40;100658.38;;;27.57;41.18
80654;BME280;70020;45.524;10.240;2023-09-08T00:05:06;100669.84;;;27.78;40.85
80654;BME280;70020;45.524;10.240;2023-09-08T00:07:32;100660.00;;;27.72;40.95
80654;BME280;70020;45.524;10.240;2023-09-08T00:09:58;100664.94;;;27.81;40.83
80654;BME280;70020;45.524;10.240;2023-09-08T00:12:27;100665.34;;;27.85;40.44
80654;BME280;70020;45.524;10.240;2023-09-08T00:14:53;100660.00;;;27.78;41.08
80654;BME280;70020;45.524;10.240;2023-09-08T00:17:19;100666.56;;;27.76;41.62
80654;BME280;70020;45.524;10.240;2023-09-08T00:19:46;100663.28;;;27.74;41.18
80654;BME280;70020;45.524;10.240;2023-09-08T00:22:12;100664.31;;;27.79;41.26
80654;BME280;70020;45.524;10.240;2023-09-08T00:24:38;100656.34;;;27.79;41.62
80654;BME280;70020;45.524;10.240;2023-09-08T00:27:04;100648.75;;;27.70;42.20
80654;BME280;70020;45.524;10.240;2023-09-08T00:29:30;100652.44;;;27.68;42.14
80654;BME280;70020;45.524;10.240;2023-09-08T00:31:56;100657.75;;;27.68;42.70
80654;BME280;70020;45.524;10.240;2023-09-08T00:34:22;100649.38;;;27.58;43.29
80654;BME280;70020;45.524;10.240;2023-09-08T00:36:47;100641.81;;;27.55;43.41
80654;BME280;70020;45.524;10.240;2023-09-08T00:39:13;100647.72;;;27.51;43.57
80654;BME280;70020;45.524;10.240;2023-09-08T00:41:39;100646.09;;;27.63;42.91
80654;BME280;70020;45.524;10.240;2023-09-08T00:44:05;100638.53;;;27.47;43.42
80654;BME280;70020;45.524;10.240;2023-09-08T00:46:31;100637.28;;;27.43;43.09
80654;BME280;70020;45.524;10.240;2023-09-08T00:48:56;100641.81;;;27.55;42.08
80654;BME280;70020;45.524;10.240;2023-09-08T00:51:22;100641.19;;;27.53;42.21
80654;BME280;70020;45.524;10.240;2023-09-08T00:53:48;100634.41;;;27.38;41.91
80654;BME280;70020;45.524;10.240;2023-09-08T00:56:15;100634.63;;;27.43;42.60
80654;BME280;70020;45.524;10.240;2023-09-08T00:58:40;100633.00;;;27.42;42.43
80654;BME280;70020;45.524;10.240;2023-09-08T01:01:06;100633.41;;;27.52;41.30
80654;BME280;70020;45.524;10.240;2023-09-08T01:03:32;100633.00;;;27.48;41.63
80654;BME280;70020;45.524;10.240;2023-09-08T01:05:58;100639.31;;;27.41;41.84
80654;BME280;70020;45.524;10.240;2023-09-08T01:08:25;100631.31;;;27.28;41.29
80654;BME280;70020;45.524;10.240;2023-09-08T01:10:51;100631.69;;;27.18;42.31
80654;BME280;70020;45.524;10.240;2023-09-08T01:13:18;100630.66;;;27.19;41.78
80654;BME280;70020;45.524;10.240;2023-09-08T01:15:44;100625.72;;;27.03;42.30
80654;BME280;70020;45.524;10.240;2023-09-08T01:18:11;100627.75;;;27.01;42.58
80654;BME280;70020;45.524;10.240;2023-09-08T01:26:18;100622.44;;;27.01;42.76
80654;BME280;70020;45.524;10.240;2023-09-08T01:28:49;100628.16;;;26.98;42.33
80654;BME280;70020;45.524;10.240;2023-09-08T01:31:16;100624.94;;;27.09;42.40
80654;BME280;70020;45.524;10.240;2023-09-08T01:33:42;100621.84;;;27.12;42.13
80654;BME280;70020;45.524;10.240;2023-09-08T01:36:09;100622.28;;;27.09;42.56
80654;BME280;70020;45.524;10.240;2023-09-08T01:38:35;100614.09;;;27.17;42.36
80654;BME280;70020;45.524;10.240;2023-09-08T01:41:00;100611.66;;;27.22;42.48
80654;BME280;70020;45.524;10.240;2023-09-08T01:43:27;100619.03;;;27.27;42.03
80654;BME280;70020;45.524;10.240;2023-09-08T01:45:53;100611.66;;;27.22;41.99
80654;BME280;70020;45.524;10.240;2023-09-08T01:48:19;100609.84;;;27.16;41.83
80654;BME280;70020;45.524;10.240;2023-09-08T01:50:44;100606.34;;;27.09;41.47
80654;BME280;70020;45.524;10.240;2023-09-08T01:53:11;100607.13;;;27.03;41.55
80654;BME280;70020;45.524;10.240;2023-09-08T01:55:37;100606.75;;;27.13;41.35
80654;BME280;70020;45.524;10.240;2023-09-08T01:58:03;100603.06;;;27.14;41.11
80654;BME280;70020;45.524;10.240;2023-09-08T02:00:28;100603.03;;;27.07;41.19
80654;BME280;70020;45.524;10.240;2023-09-08T02:02:54;100608.19;;;27.22;41.24
80654;BME280;70020;45.524;10.240;2023-09-08T02:05:20;100604.94;;;27.33;40.64
80654;BME280;70020;45.524;10.240;2023-09-08T02:07:45;100606.56;;;27.27;40.96
80654;BME280;70020;45.524;10.240;2023-09-08T02:10:11;100601.47;;;27.32;41.01
80654;BME280;70020;45.524;10.240;2023-09-08T02:12:37;100602.47;;;27.31;41.42
80654;BME280;70020;45.524;10.240;2023-09-08T02:15:05;100597.56;;;27.22;41.30
80654;BME280;70020;45.524;10.240;2023-09-08T02:17:31;100600.22;;;27.22;41.44
80654;BME280;70020;45.524;10.240;2023-09-08T02:20:00;100596.53;;;27.16;42.21
80654;BME280;70020;45.524;10.240;2023-09-08T02:22:26;100602.03;;;27.08;42.33
80654;BME280;70020;45.524;10.240;2023-09-08T02:24:53;100600.22;;;27.15;42.28
80654;BME280;70020;45.524;10.240;2023-09-08T02:27:18;100605.09;;;27.05;42.73
80654;BME280;70020;45.524;10.240;2023-09-08T02:29:44;100598.16;;;27.04;42.82
80654;BME280;70020;45.524;10.240;2023-09-08T02:32:10;100601.59;;;26.98;42.48
80654;BME280;70020;45.524;10.240;2023-09-08T02:34:36;100600.56;;;26.92;43.25
80654;BME280;70020;45.524;10.240;2023-09-08T02:37:02;100598.69;;;26.80;43.26
80654;BME280;70020;45.524;10.240;2023-09-08T02:39:28;100596.03;;;26.80;42.68
80654;BME280;70020;45.524;10.240;2023-09-08T02:41:53;100604.63;;;26.82;42.73
80654;BME280;70020;45.524;10.240;2023-09-08T02:44:20;100602.31;;;26.72;43.08
80654;BME280;70020;45.524;10.240;2023-09-08T02:46:47;100601.06;;;26.68;42.93
80654;BME280;70020;45.524;10.240;2023-09-08T02:49:13;100600.47;;;26.73;43.13
80654;BME280;70020;45.524;10.240;2023-09-08T02:51:38;100598.78;;;26.59;43.32
80654;BME280;70020;45.524;10.240;2023-09-08T02:54:04;100596.69;;;26.48;43.64
80654;BME280;70020;45.524;10.240;2023-09-08T02:56:30;100593.84;;;26.49;43.70
80654;BME280;70020;45.524;10.240;2023-09-08T02:58:56;100592.50;;;26.25;44.45
80654;BME280;70020;45.524;10.240;2023-09-08T03:01:22;100594.53;;;26.23;43.98
80654;BME280;70020;45.524;10.240;2023-09-08T03:03:48;100599.25;;;26.28;44.13
80654;BME280;70020;45.524;10.240;2023-09-08T03:06:15;100590.34;;;26.42;43.83
80654;BME280;70020;45.524;10.240;2023-09-08T03:08:41;100595.06;;;26.47;43.66
80654;BME280;70020;45.524;10.240;2023-09-08T03:11:07;100600.38;;;26.53;43.70
80654;BME280;70020;45.524;10.240;2023-09-08T03:13:34;100595.75;;;26.62;43.58
80654;BME280;70020;45.524;10.240;2023-09-08T03:16:07;100599.75;;;26.45;43.63
80654;BME280;70020;45.524;10.240;2023-09-08T03:18:34;100595.25;;;26.45;44.15
80654;BME280;70020;45.524;10.240;2023-09-08T03:21:02;100594.13;;;26.26;44.02
80654;BME280;70020;45.524;10.240;2023-09-08T03:23:38;100593.34;;;26.32;44.05
80654;BME280;70020;45.524;10.240;2023-09-08T03:26:09;100591.47;;;26.26;43.88
80654;BME280;70020;45.524;10.240;2023-09-08T03:28:36;100591.53;;;26.40;43.69
80654;BME280;70020;45.524;10.240;2023-09-08T03:31:03;100591.53;;;26.40;44.13
80654;BME280;70020;45.524;10.240;2023-09-08T03:33:28;100584.41;;;26.40;43.36
80654;BME280;70020;45.524;10.240;2023-09-08T03:35:54;100585.63;;;26.38;43.12
80654;BME280;70020;45.524;10.240;2023-09-08T03:38:20;100585.50;;;26.52;43.17
80654;BME280;70020;45.524;10.240;2023-09-08T03:40:46;100581.13;;;26.38;43.78
80654;BME280;70020;45.524;10.240;2023-09-08T03:43:11;100578.63;;;26.30;43.86
80654;BME280;70020;45.524;10.240;2023-09-08T03:45:37;100581.53;;;26.35;43.47
80654;BME280;70020;45.524;10.240;2023-09-08T03:48:04;100577.63;;;26.31;43.21
80654;BME280;70020;45.524;10.240;2023-09-08T03:50:30;100579.28;;;26.39;43.26
80654;BME280;70020;45.524;10.240;2023-09-08T03:52:55;100585.03;;;26.42;43.14
80654;BME280;70020;45.524;10.240;2023-09-08T03:55:27;100580.44;;;26.23;43.20
80654;BME280;70020;45.524;10.240;2023-09-08T03:57:52;100586.81;;;26.28;43.57
80654;BME280;70020;45.524;10.240;2023-09-08T04:00:18;100581.50;;;26.28;43.21
80654;BME280;70020;45.524;10.240;2023-09-08T04:02:46;100580.81;;;26.20;43.71
80654;BME280;70020;45.524;10.240;2023-09-08T04:05:12;100582.25;;;26.22;43.59
80654;BME280;70020;45.524;10.240;2023-09-08T04:07:38;100583.69;;;26.18;43.51
80654;BME280;70020;45.524;10.240;2023-09-08T04:10:05;100585.09;;;26.14;43.48
80654;BME280;70020;45.524;10.240;2023-09-08T04:12:31;100579.97;;;26.13;43.44
80654;BME280;70020;45.524;10.240;2023-09-08T04:14:57;100577.63;;;26.03;43.55
80654;BME280;70020;45.524;10.240;2023-09-08T04:17:23;100578.38;;;26.18;43.96
80654;BME280;70020;45.524;10.240;2023-09-08T04:19:49;100577.16;;;26.21;43.62
80654;BME280;70020;45.524;10.240;2023-09-08T04:22:15;100580.06;;;26.26;43.03
80654;BME280;70020;45.524;10.240;2023-09-08T04:24:42;100574.47;;;26.14;43.30
80654;BME280;70020;45.524;10.240;2023-09-08T04:27:07;100577.88;;;26.08;43.70
80654;BME280;70020;45.524;10.240;2023-09-08T04:29:34;100579.00;;;26.20;43.70
80654;BME280;70020;45.524;10.240;2023-09-08T04:32:00;100581.66;;;26.20;44.36
80654;BME280;70020;45.524;10.240;2023-09-08T04:34:26;100586.13;;;26.20;44.47
80654;BME280;70020;45.524;10.240;2023-09-08T04:36:52;100587.84;;;26.34;44.65
80654;BME280;70020;45.524;10.240;2023-09-08T04:39:18;100591.69;;;26.31;44.94
80654;BME280;70020;45.524;10.240;2023-09-08T04:41:44;100585.75;;;26.23;45.54
80654;BME280;70020;45.524;10.240;2023-09-08T04:44:10;100590.22;;;26.22;45.68
80654;BME280;70020;45.524;10.240;2023-09-08T04:46:36;100595.00;;;26.06;46.69
80654;BME280;70020;45.524;10.240;2023-09-08T04:49:02;100593.44;;;26.11;46.34
80654;BME280;70020;45.524;10.240;2023-09-08T04:51:28;100599.56;;;26.12;46.23
80654;BME280;70020;45.524;10.240;2023-09-08T04:53:54;100598.78;;;26.18;46.07
80654;BME280;70020;45.524;10.240;2023-09-08T04:56:20;100600.88;;;26.01;44.91
80654;BME280;70020;45.524;10.240;2023-09-08T04:58:47;100600.28;;;26.06;45.67
80654;BME280;70020;45.524;10.240;2023-09-08T05:01:13;100606.50;;;26.13;46.61
80654;BME280;70020;45.524;10.240;2023-09-08T05:03:39;100608.88;;;26.08;46.92
80654;BME280;70020;45.524;10.240;2023-09-08T05:06:05;100612.88;;;26.18;46.27
80654;BME280;70020;45.524;10.240;2023-09-08T05:08:31;100613.84;;;26.11;46.67
80654;BME280;70020;45.524;10.240;2023-09-08T05:10:57;100618.94;;;26.12;46.90
80654;BME280;70020;45.524;10.240;2023-09-08T05:13:24;100612.56;;;26.07;46.31
80654;BME280;70020;45.524;10.240;2023-09-08T05:15:52;100612.34;;;26.08;46.28
80654;BME280;70020;45.524;10.240;2023-09-08T05:18:25;100611.50;;;26.01;46.40
80654;BME280;70020;45.524;10.240;2023-09-08T05:20:50;100617.66;;;26.08;46.97
80654;BME280;70020;45.524;10.240;2023-09-08T05:23:16;100615.00;;;26.08;46.29
80654;BME280;70020;45.524;10.240;2023-09-08T05:25:45;100630.31;;;26.06;46.38
80654;BME280;70020;45.524;10.240;2023-09-08T05:28:11;100627.66;;;26.06;47.06
80654;BME280;70020;45.524;10.240;2023-09-08T05:30:37;100630.91;;;26.08;47.17
80654;BME280;70020;45.524;10.240;2023-09-08T05:33:04;100628.78;;;26.18;46.50
80654;BME280;70020;45.524;10.240;2023-09-08T05:35:29;100636.28;;;26.15;47.36
80654;BME280;70020;45.524;10.240;2023-09-08T05:37:56;100637.88;;;26.09;46.87
80654;BME280;70020;45.524;10.240;2023-09-08T05:40:21;100627.97;;;26.18;45.18
80654;BME280;70020;45.524;10.240;2023-09-08T05:42:49;100628.66;;;26.05;45.67
80654;BME280;70020;45.524;10.240;2023-09-08T05:45:18;100632.09;;;26.27;44.61
80654;BME280;70020;45.524;10.240;2023-09-08T05:47:44;100635.41;;;26.36;44.75
80654;BME280;70020;45.524;10.240;2023-09-08T05:50:10;100643.88;;;26.52;44.34
80654;BME280;70020;45.524;10.240;2023-09-08T05:52:36;100638.38;;;26.54;44.31
80654;BME280;70020;45.524;10.240;2023-09-08T05:55:02;100637.16;;;26.56;44.78
80654;BME280;70020;45.524;10.240;2023-09-08T05:57:28;100631.09;;;26.69;44.53
80654;BME280;70020;45.524;10.240;2023-09-08T05:59:55;100639.84;;;26.63;44.68
80654;BME280;70020;45.524;10.240;2023-09-08T06:02:21;100646.00;;;26.70;44.84
80654;BME280;70020;45.524;10.240;2023-09-08T06:04:47;100645.41;;;26.74;44.13
80654;BME280;70020;45.524;10.240;2023-09-08T06:07:12;100646.09;;;26.83;43.43
80654;BME280;70020;45.524;10.240;2023-09-08T06:09:38;100647.50;;;26.79;43.61
80654;BME280;70020;45.524;10.240;2023-09-08T06:12:05;100646.72;;;26.85;44.42
80654;BME280;70020;45.524;10.240;2023-09-08T06:14:30;100650.00;;;26.87;44.47
80654;BME280;70020;45.524;10.240;2023-09-08T06:16:56;100646.28;;;26.81;43.22
80654;BME280;70020;45.524;10.240;2023-09-08T06:19:22;100646.34;;;26.94;43.85
80654;BME280;70020;45.524;10.240;2023-09-08T06:21:48;100648.41;;;26.99;44.02
80654;BME280;70020;45.524;10.240;2023-09-08T06:24:14;100644.31;;;26.96;44.02
80654;BME280;70020;45.524;10.240;2023-09-08T06:26:40;100654.66;;;26.78;42.43
80654;BME280;70020;45.524;10.240;2023-09-08T06:29:07;100654.91;;;26.90;42.74
80654;BME280;70020;45.524;10.240;2023-09-08T06:31:32;100649.41;;;27.05;42.94
80654;BME280;70020;45.524;10.240;2023-09-08T06:33:58;100649.69;;;27.16;42.50
80654;BME280;70020;45.524;10.240;2023-09-08T06:36:27;100649.09;;;27.27;42.56
80654;BME280;70020;45.524;10.240;2023-09-08T06:38:53;100657.53;;;27.37;42.21
80654;BME280;70020;45.524;10.240;2023-09-08T06:41:18;100651.75;;;27.34;43.43
80654;BME280;70020;45.524;10.240;2023-09-08T06:43:44;100654.81;;;27.31;43.49
80654;BME280;70020;45.524;10.240;2023-09-08T06:46:10;100653.06;;;27.44;43.40
80654;BME280;70020;45.524;10.240;2023-09-08T06:48:36;100647.53;;;27.59;43.52
80654;BME280;70020;45.524;10.240;2023-09-08T06:51:02;100660.84;;;27.72;42.42
80654;BME280;70020;45.524;10.240;2023-09-08T06:53:28;100654.50;;;27.80;42.15
80654;BME280;70020;45.524;10.240;2023-09-08T06:55:53;100660.44;;;27.82;41.75
80654;BME280;70020;45.524;10.240;2023-09-08T06:58:19;100661.66;;;27.92;41.46
80654;BME280;70020;45.524;10.240;2023-09-08T07:00:44;100655.75;;;28.03;41.29
80654;BME280;70020;45.524;10.240;2023-09-08T07:03:11;100650.41;;;28.16;41.55
80654;BME280;70020;45.524;10.240;2023-09-08T07:05:39;100662.09;;;28.15;42.14
80654;BME280;70020;45.524;10.240;2023-09-08T07:08:05;100655.31;;;28.19;41.95
80654;BME280;70020;45.524;10.240;2023-09-08T07:10:31;100657.56;;;28.09;41.83
80654;BME280;70020;45.524;10.240;2023-09-08T07:12:57;100651.88;;;28.06;41.46
80654;BME280;70020;45.524;10.240;2023-09-08T07:15:23;100652.03;;;28.24;40.89
80654;BME280;70020;45.524;10.240;2023-09-08T07:17:49;100653.19;;;28.61;41.61
80654;BME280;70020;45.524;10.240;2023-09-08T07:20:14;100655.75;;;28.93;40.87
80654;BME280;70020;45.524;10.240;2023-09-08T07:22:40;100650.75;;;29.04;40.44
80654;BME280;70020;45.524;10.240;2023-09-08T07:25:07;100654.16;;;29.24;40.69
80654;BME280;70020;45.524;10.240;2023-09-08T07:27:33;100644.69;;;29.28;40.25
80654;BME280;70020;45.524;10.240;2023-09-08T07:29:59;100647.97;;;29.30;40.21
80654;BME280;70020;45.524;10.240;2023-09-08T07:32:25;100643.69;;;29.29;39.74
80654;BME280;70020;45.524;10.240;2023-09-08T07:34:51;100647.09;;;28.98;39.30
80654;BME280;70020;45.524;10.240;2023-09-08T07:37:23;100655.34;;;28.90;39.93
80654;BME280;70020;45.524;10.240;2023-09-08T07:39:50;100645.47;;;28.97;39.90
80654;BME280;70020;45.524;10.240;2023-09-08T07:42:17;100646.72;;;28.88;40.17
80654;BME280;70020;45.524;10.240;2023-09-08T07:44:42;100650.25;;;28.75;39.39
80654;BME280;70020;45.524;10.240;2023-09-08T07:47:08;100649.66;;;28.73;39.29
80654;BME280;70020;45.524;10.240;2023-09-08T07:49:34;100656.75;;;28.92;39.08
80654;BME280;70020;45.524;10.240;2023-09-08T07:52:00;100646.25;;;29.04;38.55
80654;BME280;70020;45.524;10.240;2023-09-08T07:54:25;100654.00;;;29.12;38.31
80654;BME280;70020;45.524;10.240;2023-09-08T07:56:51;100642.50;;;29.18;37.86
80654;BME280;70020;45.524;10.240;2023-09-08T07:59:17;100644.41;;;29.05;38.42
80654;BME280;70020;45.524;10.240;2023-09-08T08:01:43;100641.50;;;29.13;38.11
80654;BME280;70020;45.524;10.240;2023-09-08T08:04:08;100647.63;;;29.20;38.02
80654;BME280;70020;45.524;10.240;2023-09-08T08:06:34;100650.38;;;29.38;37.29
80654;BME280;70020;45.524;10.240;2023-09-08T08:09:00;100649.13;;;29.03;37.69
80654;BME280;70020;45.524;10.240;2023-09-08T08:11:26;100647.53;;;29.33;37.67
80654;BME280;70020;45.524;10.240;2023-09-08T08:13:51;100652.81;;;29.46;38.33
80654;BME280;70020;45.524;10.240;2023-09-08T08:16:17;100647.41;;;29.21;38.50
80654;BME280;70020;45.524;10.240;2023-09-08T08:18:42;100649.88;;;29.16;38.16
80654;BME280;70020;45.524;10.240;2023-09-08T08:21:08;100650.31;;;29.20;39.01
80654;BME280;70020;45.524;10.240;2023-09-08T08:23:35;100650.13;;;29.46;38.38
80654;BME280;70020;45.524;10.240;2023-09-08T08:26:01;100650.72;;;29.79;38.07
80654;BME280;70020;45.524;10.240;2023-09-08T08:28:26;100643.97;;;29.77;37.34
80654;BME280;70020;45.524;10.240;2023-09-08T08:30:52;100653.56;;;29.53;37.80
80654;BME280;70020;45.524;10.240;2023-09-08T08:33:18;100649.47;;;29.75;37.71
80654;BME280;70020;45.524;10.240;2023-09-08T08:35:51;100649.03;;;29.85;37.34
80654;BME280;70020;45.524;10.240;2023-09-08T08:38:18;100648.03;;;29.79;36.54
80654;BME280;70020;45.524;10.240;2023-09-08T08:40:44;100645.19;;;29.99;37.18
80654;BME280;70020;45.524;10.240;2023-09-08T08:43:10;100639.03;;;29.98;36.66
80654;BME280;70020;45.524;10.240;2023-09-08T08:45:37;100635.38;;;30.17;36.38
80654;BME280;70020;45.524;10.240;2023-09-08T08:48:04;100640.72;;;29.68;37.13
80654;BME280;70020;45.524;10.240;2023-09-08T08:50:32;100628.34;;;29.80;35.93
80654;BME280;70020;45.524;10.240;2023-09-08T08:52:58;100626.41;;;30.12;35.30
80654;BME280;70020;45.524;10.240;2023-09-08T08:55:25;100625.25;;;30.44;35.01
80654;BME280;70020;45.524;10.240;2023-09-08T08:57:51;100630.19;;;30.22;35.08
80654;BME280;70020;45.524;10.240;2023-09-08T09:00:17;100623.41;;;30.45;35.00
80654;BME280;70020;45.524;10.240;2023-09-08T09:02:43;100624.59;;;30.49;34.09
80654;BME280;70020;45.524;10.240;2023-09-08T09:05:13;100625.66;;;30.23;34.35
80654;BME280;70020;45.524;10.240;2023-09-08T09:07:42;100624.41;;;30.25;34.43
80654;BME280;70020;45.524;10.240;2023-09-08T09:10:08;100623.06;;;30.16;35.00
80654;BME280;70020;45.524;10.240;2023-09-08T09:12:33;100624.66;;;30.42;33.56
80654;BME280;70020;45.524;10.240;2023-09-08T09:14:59;100625.16;;;30.51;34.15
80654;BME280;70020;45.524;10.240;2023-09-08T09:17:26;100621.97;;;30.24;35.23
80654;BME280;70020;45.524;10.240;2023-09-08T09:20:12;100622.97;;;30.05;34.90
80654;BME280;70020;45.524;10.240;2023-09-08T09:22:39;100618.31;;;30.18;33.85
80654;BME280;70020;45.524;10.240;2023-09-08T09:25:04;100613.75;;;30.62;34.30
80654;BME280;70020;45.524;10.240;2023-09-08T09:27:33;100609.91;;;30.87;33.08
80654;BME280;70020;45.524;10.240;2023-09-08T09:29:59;100613.63;;;30.86;32.67
80654;BME280;70020;45.524;10.240;2023-09-08T09:32:25;100611.25;;;30.97;33.64
80654;BME280;70020;45.524;10.240;2023-09-08T09:34:54;100608.13;;;30.52;33.63
80654;BME280;70020;45.524;10.240;2023-09-08T09:37:20;100608.72;;;30.83;33.50
80654;BME280;70020;45.524;10.240;2023-09-08T09:39:50;100603.25;;;30.78;33.65
80654;BME280;70020;45.524;10.240;2023-09-08T09:42:16;100597.91;;;30.78;33.70
80654;BME280;70020;45.524;10.240;2023-09-08T09:44:42;100604.19;;;30.84;33.67
80654;BME280;70020;45.524;10.240;2023-09-08T09:47:08;100599.59;;;30.91;33.33
80654;BME280;70020;45.524;10.240;2023-09-08T09:49:45;100595.84;;;31.10;32.99
80654;BME280;70020;45.524;10.240;2023-09-08T09:52:13;100598.91;;;31.25;32.58
80654;BME280;70020;45.524;10.240;2023-09-08T09:54:42;100599.38;;;31.22;33.07
80654;BME280;70020;45.524;10.240;2023-09-08T09:57:13;100590.31;;;31.23;33.65
80654;BME280;70020;45.524;10.240;2023-09-08T09:59:42;100591.13;;;31.35;34.66
80654;BME280;70020;45.524;10.240;2023-09-08T10:02:14;100591.06;;;30.82;32.84
80654;BME280;70020;45.524;10.240;2023-09-08T10:04:40;100588.16;;;30.84;33.45
80654;BME280;70020;45.524;10.240;2023-09-08T10:07:06;100587.81;;;31.10;33.22
80654;BME280;70020;45.524;10.240;2023-09-08T10:09:33;100582.06;;;31.36;33.19
80654;BME280;70020;45.524;10.240;2023-09-08T10:12:05;100587.97;;;31.68;32.25
80654;BME280;70020;45.524;10.240;2023-09-08T10:14:36;100580.72;;;31.69;32.29
80654;BME280;70020;45.524;10.240;2023-09-08T10:17:02;100579.38;;;31.36;32.56
80654;BME280;70020;45.524;10.240;2023-09-08T10:19:28;100580.00;;;30.97;34.34
80654;BME280;70020;45.524;10.240;2023-09-08T10:21:55;100569.31;;;30.97;34.09
80654;BME280;70020;45.524;10.240;2023-09-08T10:24:27;100569.53;;;31.07;33.62
80654;BME280;70020;45.524;10.240;2023-09-08T10:27:03;100568.84;;;31.00;33.95
80654;BME280;70020;45.524;10.240;2023-09-08T10:29:31;100569.22;;;31.04;34.79
80654;BME280;70020;45.524;10.240;2023-09-08T10:31:58;100567.72;;;31.19;32.61
80654;BME280;70020;45.524;10.240;2023-09-08T10:34:26;100569.09;;;31.51;31.81
80654;BME280;70020;45.524;10.240;2023-09-08T10:36:53;100568.28;;;31.63;31.60
80654;BME280;70020;45.524;10.240;2023-09-08T10:45:02;100559.66;;;31.84;33.58
80654;BME280;70020;45.524;10.240;2023-09-08T10:47:41;100551.63;;;31.72;32.79
80654;BME280;70020;45.524;10.240;2023-09-08T10:50:26;100551.06;;;31.47;34.26
80654;BME280;70020;45.524;10.240;2023-09-08T10:53:07;100552.47;;;31.73;33.51
80654;BME280;70020;45.524;10.240;2023-09-08T10:55:41;100553.25;;;31.61;33.14
80654;BME280;70020;45.524;10.240;2023-09-08T10:58:10;100549.78;;;31.84;32.43
80654;BME280;70020;45.524;10.240;2023-09-08T11:00:52;100557.91;;;31.89;32.08
80654;BME280;70020;45.524;10.240;2023-09-08T11:03:47;100555.34;;;31.94;32.65
80654;BME280;70020;45.524;10.240;2023-09-08T11:06:18;100546.25;;;31.95;33.01
80654;BME280;70020;45.524;10.240;2023-09-08T11:08:45;100548.84;;;32.02;33.19
80654;BME280;70020;45.524;10.240;2023-09-08T11:11:14;100547.53;;;32.16;33.54
80654;BME280;70020;45.524;10.240;2023-09-08T11:13:40;100546.59;;;32.22;34.62
80654;BME280;70020;45.524;10.240;2023-09-08T11:16:07;100540.91;;;32.07;32.98
80654;BME280;70020;45.524;10.240;2023-09-08T11:18:34;100546.41;;;32.00;34.16
80654;BME280;70020;45.524;10.240;2023-09-08T11:21:06;100546.38;;;31.89;34.13
80654;BME280;70020;45.524;10.240;2023-09-08T11:23:32;100542.91;;;32.00;34.86
80654;BME280;70020;45.524;10.240;2023-09-08T11:25:59;100541.63;;;31.79;34.01
80654;BME280;70020;45.524;10.240;2023-09-08T11:28:26;100549.91;;;31.78;33.63
80654;BME280;70020;45.524;10.240;2023-09-08T11:30:52;100550.56;;;31.96;34.37
80654;BME280;70020;45.524;10.240;2023-09-08T11:33:24;100545.31;;;32.24;33.02
80654;BME280;70020;45.524;10.240;2023-09-08T11:35:53;100545.00;;;31.98;33.21
80654;BME280;70020;45.524;10.240;2023-09-08T11:38:26;100546.91;;;32.25;32.82
80654;BME280;70020;45.524;10.240;2023-09-08T11:40:56;100543.88;;;32.34;33.04
80654;BME280;70020;45.524;10.240;2023-09-08T11:43:26;100549.09;;;32.40;33.59
80654;BME280;70020;45.524;10.240;2023-09-08T11:45:52;100552.44;;;32.47;32.83
80654;BME280;70020;45.524;10.240;2023-09-08T11:48:19;100545.16;;;32.31;32.51
80654;BME280;70020;45.524;10.240;2023-09-08T11:50:48;100546.31;;;32.35;33.75
80654;BME280;70020;45.524;10.240;2023-09-08T11:53:19;100545.94;;;31.92;32.70
80654;BME280;70020;45.524;10.240;2023-09-08T11:55:46;100537.59;;;32.28;32.49
80654;BME280;70020;45.524;10.240;2023-09-08T11:58:12;100534.91;;;32.51;32.62
80654;BME280;70020;45.524;10.240;2023-09-08T12:00:38;100525.56;;;32.42;32.88
80654;BME280;70020;45.524;10.240;2023-09-08T12:03:11;100528.66;;;32.62;32.85
80654;BME280;70020;45.524;10.240;2023-09-08T12:05:38;100526.47;;;32.48;32.51
80654;BME280;70020;45.524;10.240;2023-09-08T12:08:05;100525.97;;;32.62;33.34
80654;BME280;70020;45.524;10.240;2023-09-08T12:10:38;100521.09;;;32.59;33.11
80654;BME280;70020;45.524;10.240;2023-09-08T12:13:04;100514.72;;;32.49;33.07
80654;BME280;70020;45.524;10.240;2023-09-08T12:15:37;100515.50;;;32.77;32.23
80654;BME280;70020;45.524;10.240;2023-09-08T12:18:05;100505.13;;;32.81;32.80
80654;BME280;70020;45.524;10.240;2023-09-08T12:20:32;100509.59;;;32.75;32.21
80654;BME280;70020;45.524;10.240;2023-09-08T12:23:06;100511.22;;;32.76;31.95
80654;BME280;70020;45.524;10.240;2023-09-08T12:25:33;100505.22;;;32.86;32.44
80654;BME280;70020;45.524;10.240;2023-09-08T12:28:00;100510.91;;;32.89;32.51
80654;BME280;70020;45.524;10.240;2023-09-08T12:30:27;100503.28;;;32.81;32.54
80654;BME280;70020;45.524;10.240;2023-09-08T12:32:58;100496.19;;;32.75;32.84
80654;BME280;70020;45.524;10.240;2023-09-08T12:35:24;100495.06;;;32.71;31.77
80654;BME280;70020;45.524;10.240;2023-09-08T12:38:01;100491.72;;;32.81;32.22
80654;BME280;70020;45.524;10.240;2023-09-08T12:40:28;100498.41;;;32.95;31.85
80654;BME280;70020;45.524;10.240;2023-09-08T12:42:54;100487.88;;;33.05;33.10
80654;BME280;70020;45.524;10.240;2023-09-08T12:45:21;100480.66;;;33.06;32.02
80654;BME280;70020;45.524;10.240;2023-09-08T12:47:48;100483.31;;;33.22;31.50
80654;BME280;70020;45.524;10.240;2023-09-08T12:50:14;100478.84;;;33.28;31.20